createdAt,value
2016-09-06T00:00:06.987Z,1014.43
2016-09-06T00:01:06.965Z,1014.43
2016-09-06T00:02:06.944Z,1014.4
2016-09-06T00:03:06.921Z,1014.39
2016-09-06T00:04:06.900Z,1014.41
2016-09-06T00:05:06.878Z,1014.43
2016-09-06T00:06:06.857Z,1014.38
2016-09-06T00:07:06.834Z,1014.45
2016-09-06T00:08:06.814Z,1014.44
2016-09-06T00:09:06.792Z,1014.44
2016-09-06T00:10:06.770Z,1014.39
2016-09-06T00:11:06.749Z,1014.42
2016-09-06T00:12:06.727Z,1014.43
2016-09-06T00:13:06.706Z,1014.39
2016-09-06T00:14:06.684Z,1014.39
2016-09-06T00:15:06.662Z,1014.39
2016-09-06T00:16:06.641Z,1014.41
2016-09-06T00:17:06.618Z,1014.42
2016-09-06T00:18:06.597Z,1014.42
2016-09-06T00:19:06.580Z,1014.42
2016-09-06T00:20:06.554Z,1014.46
2016-09-06T00:21:06.532Z,1014.5
2016-09-06T00:22:06.509Z,1014.47
2016-09-06T00:23:06.489Z,1014.49
2016-09-06T00:24:06.467Z,1014.45
2016-09-06T00:25:06.446Z,1014.47
2016-09-06T00:26:06.424Z,1014.44
2016-09-06T00:27:06.403Z,1014.45
2016-09-06T00:28:06.380Z,1014.41
2016-09-06T00:29:06.359Z,1014.49
2016-09-06T00:30:06.337Z,1014.48
2016-09-06T00:31:06.316Z,1014.46
2016-09-06T00:32:06.292Z,1014.47
2016-09-06T00:33:06.271Z,1014.44
2016-09-06T00:34:06.249Z,1014.51
2016-09-06T00:35:06.227Z,1014.49
2016-09-06T00:36:06.206Z,1014.47
2016-09-06T00:37:06.185Z,1014.49
2016-09-06T00:38:06.161Z,1014.53
2016-09-06T00:39:06.140Z,1014.52
2016-09-06T00:40:06.117Z,1014.52
2016-09-06T00:41:06.097Z,1014.55
2016-09-06T00:42:06.075Z,1014.54
2016-09-06T00:43:06.053Z,1014.57
2016-09-06T00:44:06.031Z,1014.57
2016-09-06T00:45:06.009Z,1014.55
2016-09-06T00:46:05.994Z,1014.57
2016-09-06T00:47:05.964Z,1014.53
2016-09-06T00:48:05.943Z,1014.55
2016-09-06T00:49:05.921Z,1014.56
2016-09-06T00:50:05.898Z,1014.53
2016-09-06T00:51:05.877Z,1014.5
2016-09-06T00:52:05.855Z,1014.46
2016-09-06T00:53:05.834Z,1014.44
2016-09-06T00:54:05.810Z,1014.45
2016-09-06T00:55:05.789Z,1014.43
2016-09-06T00:56:05.768Z,1014.44
2016-09-06T00:57:05.745Z,1014.46
2016-09-06T00:58:05.723Z,1014.46
2016-09-06T00:59:05.701Z,1014.43
2016-09-06T01:00:05.681Z,1014.43
2016-09-06T01:01:05.657Z,1014.45
2016-09-06T01:02:05.635Z,1014.41
2016-09-06T01:03:05.614Z,1014.41
2016-09-06T01:04:05.593Z,1014.38
2016-09-06T01:05:05.569Z,1014.4
2016-09-06T01:06:05.547Z,1014.38
2016-09-06T01:07:05.526Z,1014.37
2016-09-06T01:08:05.515Z,1014.36
2016-09-06T01:09:05.480Z,1014.39
2016-09-06T01:10:05.459Z,1014.4
2016-09-06T01:11:05.438Z,1014.42
2016-09-06T01:12:05.414Z,1014.4
2016-09-06T01:13:05.393Z,1014.42
2016-09-06T01:14:05.371Z,1014.4
2016-09-06T01:15:05.349Z,1014.41
2016-09-06T01:16:05.326Z,1014.41
2016-09-06T01:17:05.305Z,1014.43
2016-09-06T01:18:05.283Z,1014.4
2016-09-06T01:19:05.259Z,1014.42
2016-09-06T01:20:05.238Z,1014.42
2016-09-06T01:21:05.217Z,1014.45
2016-09-06T01:22:05.194Z,1014.43
2016-09-06T01:23:05.172Z,1014.4
2016-09-06T01:24:05.150Z,1014.42
2016-09-06T01:25:05.128Z,1014.42
2016-09-06T01:26:05.106Z,1014.47
2016-09-06T01:27:05.083Z,1014.47
2016-09-06T01:28:05.061Z,1014.47
2016-09-06T01:29:05.039Z,1014.54
2016-09-06T01:30:05.017Z,1014.51
2016-09-06T01:31:04.995Z,1014.53
2016-09-06T01:32:04.973Z,1014.52
2016-09-06T01:33:04.951Z,1014.5
2016-09-06T01:34:04.929Z,1014.55
2016-09-06T01:35:04.914Z,1014.53
2016-09-06T01:36:04.885Z,1014.58
2016-09-06T01:37:04.863Z,1014.55
2016-09-06T01:38:04.840Z,1014.59
2016-09-06T01:39:04.818Z,1014.57
2016-09-06T01:40:04.797Z,1014.58
2016-09-06T01:41:04.773Z,1014.62
2016-09-06T01:42:04.751Z,1014.61
2016-09-06T01:43:04.730Z,1014.57
2016-09-06T01:44:04.708Z,1014.58
2016-09-06T01:45:04.684Z,1014.56
2016-09-06T01:46:04.663Z,1014.61
2016-09-06T01:47:04.641Z,1014.59
2016-09-06T01:48:04.619Z,1014.56
2016-09-06T01:49:04.596Z,1014.58
2016-09-06T01:50:04.580Z,1014.59
2016-09-06T01:51:04.552Z,1014.62
2016-09-06T01:52:04.529Z,1014.64
2016-09-06T01:53:04.507Z,1014.65
2016-09-06T01:54:04.484Z,1014.62
2016-09-06T01:55:04.463Z,1014.62
2016-09-06T01:56:04.440Z,1014.64
2016-09-06T01:57:04.418Z,1014.63
2016-09-06T01:58:04.396Z,1014.61
2016-09-06T01:59:04.374Z,1014.6
2016-09-06T02:00:04.352Z,1014.59
2016-09-06T02:01:04.330Z,1014.61
2016-09-06T02:02:04.307Z,1014.63
2016-09-06T02:03:04.288Z,1014.65
2016-09-06T02:04:04.262Z,1014.64
2016-09-06T02:05:04.241Z,1014.69
2016-09-06T02:06:04.219Z,1014.69
2016-09-06T02:07:04.195Z,1014.69
2016-09-06T02:08:04.174Z,1014.68
2016-09-06T02:09:04.152Z,1014.65
2016-09-06T02:10:04.128Z,1014.66
2016-09-06T02:11:04.105Z,1014.71
2016-09-06T02:12:04.084Z,1014.67
2016-09-06T02:13:04.062Z,1014.69
2016-09-06T02:14:04.039Z,1014.69
2016-09-06T02:15:04.017Z,1014.69
2016-09-06T02:16:03.995Z,1014.71
2016-09-06T02:17:03.973Z,1014.68
2016-09-06T02:18:03.950Z,1014.69
2016-09-06T02:19:03.927Z,1014.7
2016-09-06T02:20:03.905Z,1014.67
2016-09-06T02:21:03.881Z,1014.67
2016-09-06T02:22:03.860Z,1014.67
2016-09-06T02:23:03.838Z,1014.67
2016-09-06T02:24:03.816Z,1014.67
2016-09-06T02:25:03.792Z,1014.64
2016-09-06T02:26:03.770Z,1014.68
2016-09-06T02:27:03.747Z,1014.66
2016-09-06T02:28:03.726Z,1014.66
2016-09-06T02:29:03.702Z,1014.69
2016-09-06T02:30:03.681Z,1014.67
2016-09-06T02:31:03.658Z,1014.65
2016-09-06T02:32:03.634Z,1014.65
2016-09-06T02:33:03.613Z,1014.66
2016-09-06T02:34:03.591Z,1014.63
2016-09-06T02:35:03.568Z,1014.67
2016-09-06T02:36:03.545Z,1014.59
2016-09-06T02:37:03.523Z,1014.61
2016-09-06T02:38:03.500Z,1014.62
2016-09-06T02:39:03.478Z,1014.66
2016-09-06T02:40:03.455Z,1014.66
2016-09-06T02:41:03.432Z,1014.66
2016-09-06T02:42:03.410Z,1014.65
2016-09-06T02:43:03.387Z,1014.66
2016-09-06T02:44:03.364Z,1014.64
2016-09-06T02:45:03.341Z,1014.69
2016-09-06T02:46:03.319Z,1014.67
2016-09-06T02:47:03.295Z,1014.64
2016-09-06T02:48:03.273Z,1014.71
2016-09-06T02:49:03.251Z,1014.67
2016-09-06T02:50:03.229Z,1014.67
2016-09-06T02:51:03.206Z,1014.65
2016-09-06T02:52:03.182Z,1014.67
2016-09-06T02:53:03.159Z,1014.64
2016-09-06T02:54:03.137Z,1014.68
2016-09-06T02:55:03.114Z,1014.68
2016-09-06T02:56:03.092Z,1014.68
2016-09-06T02:57:03.069Z,1014.68
2016-09-06T02:58:03.045Z,1014.69
2016-09-06T02:59:03.023Z,1014.67
2016-09-06T03:00:03.000Z,1014.67
2016-09-06T03:01:02.978Z,1014.7
2016-09-06T03:02:02.954Z,1014.75
2016-09-06T03:03:02.931Z,1014.75
2016-09-06T03:04:02.909Z,1014.76
2016-09-06T03:05:02.886Z,1014.74
2016-09-06T03:06:02.862Z,1014.75
2016-09-06T03:07:02.841Z,1014.74
2016-09-06T03:08:02.817Z,1014.78
2016-09-06T03:09:02.795Z,1014.75
2016-09-06T03:10:02.775Z,1014.78
2016-09-06T03:11:02.749Z,1014.8
2016-09-06T03:12:02.727Z,1014.83
2016-09-06T03:13:02.704Z,1014.81
2016-09-06T03:14:02.689Z,1014.8
2016-09-06T03:15:02.659Z,1014.83
2016-09-06T03:16:02.635Z,1014.83
2016-09-06T03:17:02.612Z,1014.79
2016-09-06T03:18:02.589Z,1014.84
2016-09-06T03:19:02.568Z,1014.83
2016-09-06T03:20:02.544Z,1014.84
2016-09-06T03:21:02.522Z,1014.86
2016-09-06T03:22:02.498Z,1014.85
2016-09-06T03:23:02.476Z,1014.87
2016-09-06T03:24:02.452Z,1014.86
2016-09-06T03:25:02.431Z,1014.83
2016-09-06T03:26:02.407Z,1014.86
2016-09-06T03:27:02.384Z,1014.85
2016-09-06T03:28:02.361Z,1014.86
2016-09-06T03:29:02.340Z,1014.89
2016-09-06T03:30:02.316Z,1014.9
2016-09-06T03:31:02.293Z,1014.92
2016-09-06T03:32:02.270Z,1014.92
2016-09-06T03:33:02.248Z,1014.93
2016-09-06T03:34:02.225Z,1014.93
2016-09-06T03:35:02.203Z,1014.93
2016-09-06T03:36:02.180Z,1014.96
2016-09-06T03:37:02.158Z,1014.97
2016-09-06T03:38:02.133Z,1014.93
2016-09-06T03:39:02.112Z,1014.92
2016-09-06T03:40:02.088Z,1014.94
2016-09-06T03:41:02.079Z,1014.93
2016-09-06T03:42:02.042Z,1014.99
2016-09-06T03:43:02.020Z,1014.98
2016-09-06T03:44:01.997Z,1015.01
2016-09-06T03:45:01.974Z,1014.97
2016-09-06T03:46:01.951Z,1014.99
2016-09-06T03:47:01.929Z,1014.92
2016-09-06T03:48:01.905Z,1014.95
2016-09-06T03:49:01.882Z,1014.93
2016-09-06T03:50:01.859Z,1014.91
2016-09-06T03:51:01.836Z,1014.94
2016-09-06T03:52:01.814Z,1014.94
2016-09-06T03:53:01.791Z,1014.96
2016-09-06T03:54:01.768Z,1014.98
2016-09-06T03:55:01.746Z,1014.94
2016-09-06T03:56:01.721Z,1014.96
2016-09-06T03:57:01.700Z,1014.94
2016-09-06T03:58:01.677Z,1014.91
2016-09-06T03:59:01.655Z,1014.91
2016-09-06T04:00:01.631Z,1014.94
2016-09-06T04:01:01.608Z,1014.95
2016-09-06T04:02:01.586Z,1014.99
2016-09-06T04:03:01.563Z,1014.96
2016-09-06T04:04:01.539Z,1015.04
2016-09-06T04:05:01.517Z,1015.03
2016-09-06T04:06:01.494Z,1015.02
2016-09-06T04:07:01.471Z,1015.01
2016-09-06T04:08:01.448Z,1014.98
2016-09-06T04:09:01.425Z,1014.97
2016-09-06T04:10:01.402Z,1014.99
2016-09-06T04:11:01.377Z,1015.02
2016-09-06T04:12:01.355Z,1015.03
2016-09-06T04:13:01.332Z,1015.05
2016-09-06T04:14:01.311Z,1015.05
2016-09-06T04:15:01.287Z,1015.04
2016-09-06T04:16:01.265Z,1015.07
2016-09-06T04:17:01.241Z,1015.07
2016-09-06T04:18:01.218Z,1015.09
2016-09-06T04:19:01.195Z,1015.09
2016-09-06T04:20:01.174Z,1015.09
2016-09-06T04:21:01.149Z,1015.11
2016-09-06T04:22:01.127Z,1015.12
2016-09-06T04:23:01.103Z,1015.14
2016-09-06T04:24:01.081Z,1015.15
2016-09-06T04:25:01.058Z,1015.16
2016-09-06T04:26:01.035Z,1015.17
2016-09-06T04:27:01.011Z,1015.18
2016-09-06T04:28:00.989Z,1015.16
2016-09-06T04:29:00.965Z,1015.17
2016-09-06T04:30:00.943Z,1015.19
2016-09-06T04:31:00.919Z,1015.22
2016-09-06T04:32:00.897Z,1015.21
2016-09-06T04:33:00.873Z,1015.22
2016-09-06T04:34:00.850Z,1015.27
2016-09-06T04:35:00.828Z,1015.27
2016-09-06T04:36:00.806Z,1015.33
2016-09-06T04:37:00.782Z,1015.33
2016-09-06T04:38:00.759Z,1015.4
2016-09-06T04:39:00.737Z,1015.36
2016-09-06T04:40:00.713Z,1015.4
2016-09-06T04:41:00.690Z,1015.39
2016-09-06T04:42:00.666Z,1015.41
2016-09-06T04:43:00.645Z,1015.38
2016-09-06T04:44:00.621Z,1015.42
2016-09-06T04:45:00.598Z,1015.45
2016-09-06T04:46:00.576Z,1015.44
2016-09-06T04:47:00.553Z,1015.48
2016-09-06T04:48:00.529Z,1015.45
2016-09-06T04:49:00.506Z,1015.49
2016-09-06T04:50:00.484Z,1015.52
2016-09-06T04:51:00.460Z,1015.48
2016-09-06T04:52:00.437Z,1015.51
2016-09-06T04:53:00.415Z,1015.52
2016-09-06T04:54:00.391Z,1015.51
2016-09-06T04:55:00.368Z,1015.47
2016-09-06T04:56:00.345Z,1015.5
2016-09-06T04:57:00.324Z,1015.5
2016-09-06T04:58:00.300Z,1015.47
2016-09-06T04:59:00.277Z,1015.49
2016-09-06T05:00:00.265Z,1015.51
2016-09-06T05:01:00.232Z,1015.57
2016-09-06T05:02:00.208Z,1015.56
2016-09-06T05:03:00.186Z,1015.6
2016-09-06T05:04:00.172Z,1015.62
2016-09-06T05:05:00.140Z,1015.6
2016-09-06T05:06:00.116Z,1015.62
2016-09-06T05:07:00.094Z,1015.62
2016-09-06T05:08:00.071Z,1015.63
2016-09-06T05:09:00.049Z,1015.63
2016-09-06T05:10:00.026Z,1015.64
2016-09-06T05:11:00.004Z,1015.62
2016-09-06T05:11:59.981Z,1015.64
2016-09-06T05:12:59.958Z,1015.61
2016-09-06T05:13:59.935Z,1015.58
2016-09-06T05:14:59.913Z,1015.63
2016-09-06T05:15:59.890Z,1015.65
2016-09-06T05:16:59.867Z,1015.65
2016-09-06T05:17:59.844Z,1015.68
2016-09-06T05:18:59.821Z,1015.7
2016-09-06T05:19:59.799Z,1015.68
2016-09-06T05:20:59.775Z,1015.67
2016-09-06T05:21:59.753Z,1015.66
2016-09-06T05:22:59.730Z,1015.7
2016-09-06T05:23:59.707Z,1015.68
2016-09-06T05:24:59.685Z,1015.72
2016-09-06T05:25:59.667Z,1015.73
2016-09-06T05:26:59.641Z,1015.75
2016-09-06T05:27:59.617Z,1015.75
2016-09-06T05:28:59.595Z,1015.73
2016-09-06T05:29:59.572Z,1015.76
2016-09-06T05:30:59.549Z,1015.74
2016-09-06T05:31:59.527Z,1015.75
2016-09-06T05:32:59.505Z,1015.76
2016-09-06T05:33:59.483Z,1015.75
2016-09-06T05:34:59.459Z,1015.75
2016-09-06T05:35:59.438Z,1015.73
2016-09-06T05:36:59.415Z,1015.7
2016-09-06T05:37:59.392Z,1015.73
2016-09-06T05:38:59.370Z,1015.74
2016-09-06T05:39:59.348Z,1015.76
2016-09-06T05:40:59.325Z,1015.78
2016-09-06T05:41:59.302Z,1015.8
2016-09-06T05:42:59.280Z,1015.78
2016-09-06T05:43:59.258Z,1015.78
2016-09-06T05:44:59.235Z,1015.77
2016-09-06T05:45:59.213Z,1015.8
2016-09-06T05:46:59.191Z,1015.76
2016-09-06T05:47:59.169Z,1015.78
2016-09-06T05:48:59.147Z,1015.76
2016-09-06T05:49:59.124Z,1015.8
2016-09-06T05:50:59.103Z,1015.8
2016-09-06T05:51:59.081Z,1015.82
2016-09-06T05:52:59.058Z,1015.84
2016-09-06T05:53:59.037Z,1015.86
2016-09-06T05:54:59.015Z,1015.86
2016-09-06T05:55:58.993Z,1015.87
2016-09-06T05:56:58.971Z,1015.91
2016-09-06T05:57:58.948Z,1015.91
2016-09-06T05:58:58.940Z,1015.88
2016-09-06T05:59:58.905Z,1015.88
2016-09-06T06:00:58.883Z,1015.9
2016-09-06T06:01:58.860Z,1015.9
2016-09-06T06:02:58.840Z,1015.91
2016-09-06T06:03:58.817Z,1015.92
2016-09-06T06:04:58.796Z,1015.89
2016-09-06T06:05:58.774Z,1015.9
2016-09-06T06:06:58.753Z,1015.92
2016-09-06T06:07:58.730Z,1015.91
2016-09-06T06:08:58.708Z,1015.9
2016-09-06T06:09:58.687Z,1015.92
2016-09-06T06:10:58.665Z,1015.91
2016-09-06T06:11:58.644Z,1015.89
2016-09-06T06:12:58.622Z,1015.93
2016-09-06T06:13:58.601Z,1015.9
2016-09-06T06:14:58.578Z,1015.93
2016-09-06T06:15:58.558Z,1015.93
2016-09-06T06:16:58.536Z,1015.88
2016-09-06T06:17:58.516Z,1015.9
2016-09-06T06:18:58.493Z,1015.92
2016-09-06T06:19:58.472Z,1015.91
2016-09-06T06:20:58.450Z,1015.88
2016-09-06T06:21:58.429Z,1015.93
2016-09-06T06:22:58.407Z,1015.94
2016-09-06T06:23:58.387Z,1015.94
2016-09-06T06:24:58.366Z,1015.93
2016-09-06T06:25:58.343Z,1015.9
2016-09-06T06:26:58.327Z,1015.88
2016-09-06T06:27:58.301Z,1015.91
2016-09-06T06:28:58.280Z,1015.92
2016-09-06T06:29:58.258Z,1015.87
2016-09-06T06:30:58.238Z,1015.84
2016-09-06T06:31:58.216Z,1015.87
2016-09-06T06:32:58.196Z,1015.88
2016-09-06T06:33:58.174Z,1015.87
2016-09-06T06:34:58.154Z,1015.81
2016-09-06T06:35:58.133Z,1015.82
2016-09-06T06:36:58.112Z,1015.83
2016-09-06T06:37:58.091Z,1015.81
2016-09-06T06:38:58.071Z,1015.88
2016-09-06T06:39:58.049Z,1015.86
2016-09-06T06:40:58.028Z,1015.91
2016-09-06T06:41:58.008Z,1015.9
2016-09-06T06:42:57.986Z,1015.89
2016-09-06T06:43:57.966Z,1015.94
2016-09-06T06:44:57.945Z,1015.94
2016-09-06T06:45:57.926Z,1015.98
2016-09-06T06:46:57.905Z,1015.99
2016-09-06T06:47:57.883Z,1016.01
2016-09-06T06:48:57.864Z,1016.06
2016-09-06T06:49:57.843Z,1016.02
2016-09-06T06:50:57.823Z,1016.01
2016-09-06T06:51:57.801Z,1016.06
2016-09-06T06:52:57.781Z,1016.03
2016-09-06T06:53:57.760Z,1016.04
2016-09-06T06:54:57.753Z,1016.02
2016-09-06T06:55:57.719Z,1016.03
2016-09-06T06:56:57.700Z,1016.04
2016-09-06T06:57:57.680Z,1016.04
2016-09-06T06:58:57.658Z,1016.05
2016-09-06T06:59:57.639Z,1016.05
2016-09-06T07:00:57.619Z,1016.08
2016-09-06T07:01:57.638Z,1016.09
2016-09-06T07:02:57.577Z,1016.06
2016-09-06T07:03:57.556Z,1016.06
2016-09-06T07:04:57.537Z,1016.06
2016-09-06T07:05:57.516Z,1016.08
2016-09-06T07:06:57.496Z,1016.04
2016-09-06T07:07:57.477Z,1016.05
2016-09-06T07:08:57.458Z,1016.06
2016-09-06T07:09:57.436Z,1016.05
2016-09-06T07:10:57.417Z,1016.02
2016-09-06T07:11:57.398Z,1016.02
2016-09-06T07:12:57.377Z,1016.03
2016-09-06T07:13:57.357Z,1016.04
2016-09-06T07:14:57.362Z,1016.03
2016-09-06T07:15:57.318Z,1016.07
2016-09-06T07:16:57.389Z,1016.09
2016-09-06T07:17:57.278Z,1016.06
2016-09-06T07:18:57.259Z,1016.09
2016-09-06T07:19:57.238Z,1016.06
2016-09-06T07:20:57.218Z,1016.07
2016-09-06T07:21:57.199Z,1016.04
2016-09-06T07:22:57.181Z,1016.07
2016-09-06T07:23:57.160Z,1016.1
2016-09-06T07:24:57.141Z,1016.06
2016-09-06T07:25:57.192Z,1016.05
2016-09-06T07:26:57.102Z,1016.06
2016-09-06T07:27:57.082Z,1016.06
2016-09-06T07:28:57.063Z,1016.07
2016-09-06T07:29:57.045Z,1016.08
2016-09-06T07:30:57.025Z,1016.06
2016-09-06T07:31:57.005Z,1016.03
2016-09-06T07:32:56.987Z,1016.09
2016-09-06T07:33:56.968Z,1016.08
2016-09-06T07:34:56.949Z,1016.13
2016-09-06T07:35:56.929Z,1016.11
2016-09-06T07:36:56.910Z,1016.13
2016-09-06T07:37:56.891Z,1016.13
2016-09-06T07:38:56.871Z,1016.12
2016-09-06T07:39:56.852Z,1016.15
2016-09-06T07:40:56.833Z,1016.13
2016-09-06T07:41:56.815Z,1016.15
2016-09-06T07:42:56.796Z,1016.17
2016-09-06T07:43:56.777Z,1016.15
2016-09-06T07:44:56.759Z,1016.16
2016-09-06T07:45:56.740Z,1016.14
2016-09-06T07:46:56.720Z,1016.08
2016-09-06T07:47:56.702Z,1016.11
2016-09-06T07:48:56.686Z,1016.11
2016-09-06T07:49:56.664Z,1016.17
2016-09-06T07:50:56.645Z,1016.16
2016-09-06T07:51:56.627Z,1016.13
2016-09-06T07:52:56.609Z,1016.15
2016-09-06T07:53:56.590Z,1016.14
2016-09-06T07:54:56.572Z,1016.14
2016-09-06T07:55:56.553Z,1016.12
2016-09-06T07:56:56.535Z,1016.08
2016-09-06T07:57:56.516Z,1016.13
2016-09-06T07:58:56.503Z,1016.15
2016-09-06T07:59:56.480Z,1016.13
2016-09-06T08:00:56.461Z,1016.14
2016-09-06T08:01:56.442Z,1016.14
2016-09-06T08:02:56.424Z,1016.15
2016-09-06T08:03:56.406Z,1016.15
2016-09-06T08:04:56.387Z,1016.13
2016-09-06T08:05:56.376Z,1016.15
2016-09-06T08:06:56.352Z,1016.14
2016-09-06T08:07:56.333Z,1016.17
2016-09-06T08:08:56.314Z,1016.14
2016-09-06T08:09:56.297Z,1016.16
2016-09-06T08:10:56.279Z,1016.12
2016-09-06T08:11:56.260Z,1016.18
2016-09-06T08:12:56.242Z,1016.12
2016-09-06T08:13:56.225Z,1016.15
2016-09-06T08:14:56.207Z,1016.15
2016-09-06T08:15:56.238Z,1016.11
2016-09-06T08:16:56.171Z,1016.16
2016-09-06T08:17:56.153Z,1016.15
2016-09-06T08:18:56.135Z,1016.14
2016-09-06T08:19:56.118Z,1016.12
2016-09-06T08:20:56.100Z,1016.13
2016-09-06T08:21:56.083Z,1016.18
2016-09-06T08:22:56.070Z,1016.16
2016-09-06T08:23:56.046Z,1016.18
2016-09-06T08:24:56.029Z,1016.15
2016-09-06T08:25:56.012Z,1016.13
2016-09-06T08:26:55.993Z,1016.13
2016-09-06T08:27:55.976Z,1016.17
2016-09-06T08:28:55.959Z,1016.15
2016-09-06T08:29:55.940Z,1016.15
2016-09-06T08:30:55.923Z,1016.17
2016-09-06T08:31:55.906Z,1016.15
2016-09-06T08:32:55.890Z,1016.17
2016-09-06T08:33:55.871Z,1016.12
2016-09-06T08:34:55.854Z,1016.13
2016-09-06T08:35:55.839Z,1016.14
2016-09-06T08:36:55.819Z,1016.14
2016-09-06T08:37:55.801Z,1016.14
2016-09-06T08:38:55.783Z,1016.14
2016-09-06T08:39:55.767Z,1016.17
2016-09-06T08:40:55.748Z,1016.13
2016-09-06T08:41:55.733Z,1016.15
2016-09-06T08:42:55.714Z,1016.18
2016-09-06T08:43:55.698Z,1016.22
2016-09-06T08:44:55.680Z,1016.18
2016-09-06T08:45:55.664Z,1016.2
2016-09-06T08:46:55.661Z,1016.24
2016-09-06T08:47:55.629Z,1016.24
2016-09-06T08:48:55.612Z,1016.27
2016-09-06T08:49:55.595Z,1016.24
2016-09-06T08:50:55.578Z,1016.23
2016-09-06T08:51:55.560Z,1016.28
2016-09-06T08:52:55.543Z,1016.28
2016-09-06T08:53:55.527Z,1016.28
2016-09-06T08:54:55.510Z,1016.27
2016-09-06T08:55:55.492Z,1016.29
2016-09-06T08:56:55.475Z,1016.27
2016-09-06T08:57:55.459Z,1016.28
2016-09-06T08:58:55.443Z,1016.33
2016-09-06T08:59:55.426Z,1016.25
2016-09-06T09:00:55.409Z,1016.25
2016-09-06T09:01:55.392Z,1016.21
2016-09-06T09:02:55.375Z,1016.28
2016-09-06T09:03:55.359Z,1016.35
2016-09-06T09:04:55.341Z,1016.31
2016-09-06T09:05:55.325Z,1016.33
2016-09-06T09:06:55.307Z,1016.31
2016-09-06T09:07:55.292Z,1016.33
2016-09-06T09:08:55.275Z,1016.3
2016-09-06T09:09:55.258Z,1016.31
2016-09-06T09:10:55.244Z,1016.31
2016-09-06T09:11:55.225Z,1016.33
2016-09-06T09:12:55.209Z,1016.32
2016-09-06T09:13:55.192Z,1016.33
2016-09-06T09:14:55.175Z,1016.34
2016-09-06T09:15:55.159Z,1016.33
2016-09-06T09:16:55.143Z,1016.38
2016-09-06T09:17:55.126Z,1016.34
2016-09-06T09:18:55.110Z,1016.37
2016-09-06T09:19:55.093Z,1016.35
2016-09-06T09:20:55.096Z,1016.37
2016-09-06T09:21:55.060Z,1016.37
2016-09-06T09:22:55.045Z,1016.38
2016-09-06T09:23:55.028Z,1016.42
2016-09-06T09:24:55.012Z,1016.39
2016-09-06T09:25:54.995Z,1016.41
2016-09-06T09:26:54.980Z,1016.4
2016-09-06T09:27:54.963Z,1016.4
2016-09-06T09:28:54.947Z,1016.44
2016-09-06T09:29:54.931Z,1016.38
2016-09-06T09:30:54.915Z,1016.39
2016-09-06T09:31:54.899Z,1016.41
2016-09-06T09:32:54.882Z,1016.42
2016-09-06T09:33:54.867Z,1016.38
2016-09-06T09:34:54.851Z,1016.39
2016-09-06T09:35:54.834Z,1016.41
2016-09-06T09:36:54.818Z,1016.34
2016-09-06T09:37:54.803Z,1016.34
2016-09-06T09:38:54.786Z,1016.29
2016-09-06T09:39:54.771Z,1016.3
2016-09-06T09:41:54.749Z,1016.28
2016-09-06T09:42:54.723Z,1016.27
2016-09-06T09:43:54.707Z,1016.28
2016-09-06T09:44:54.691Z,1016.28
2016-09-06T09:45:54.675Z,1016.26
2016-09-06T09:46:54.663Z,1016.24
2016-09-06T09:47:54.643Z,1016.22
2016-09-06T09:48:54.628Z,1016.2
2016-09-06T09:49:54.612Z,1016.19
2016-09-06T09:50:54.595Z,1016.18
2016-09-06T09:51:54.582Z,1016.21
2016-09-06T09:52:54.565Z,1016.17
2016-09-06T09:53:54.549Z,1016.19
2016-09-06T09:54:54.534Z,1016.16
2016-09-06T09:55:54.518Z,1016.13
2016-09-06T09:56:54.503Z,1016.12
2016-09-06T09:57:54.499Z,1016.16
2016-09-06T09:58:54.471Z,1016.17
2016-09-06T09:59:54.455Z,1016.15
2016-09-06T10:00:54.440Z,1016.18
2016-09-06T10:01:54.424Z,1016.14
2016-09-06T10:02:54.409Z,1016.16
2016-09-06T10:03:54.395Z,1016.16
2016-09-06T10:04:54.376Z,1016.11
2016-09-06T10:05:54.362Z,1016.14
2016-09-06T10:06:54.346Z,1016.11
2016-09-06T10:07:54.331Z,1016.09
2016-09-06T10:08:54.314Z,1016.06
2016-09-06T10:09:54.300Z,1016.08
2016-09-06T10:10:54.285Z,1016.07
2016-09-06T10:11:54.268Z,1016.07
2016-09-06T10:12:54.252Z,1016.09
2016-09-06T10:13:54.237Z,1016.05
2016-09-06T10:14:54.222Z,1016.08
2016-09-06T10:15:54.207Z,1016.09
2016-09-06T10:16:54.191Z,1016.06
2016-09-06T10:17:54.177Z,1016.08
2016-09-06T10:18:54.161Z,1016.1
2016-09-06T10:19:54.145Z,1016.12
2016-09-06T10:20:54.130Z,1016.1
2016-09-06T10:21:54.115Z,1016.07
2016-09-06T10:22:54.100Z,1016.06
2016-09-06T10:23:54.085Z,1016.07
2016-09-06T10:24:54.069Z,1016.06
2016-09-06T10:25:54.055Z,1016.03
2016-09-06T10:26:54.039Z,1016.05
2016-09-06T10:27:54.024Z,1016.01
2016-09-06T10:28:54.009Z,1016
2016-09-06T10:29:53.995Z,1016
2016-09-06T10:30:53.979Z,1016.01
2016-09-06T10:31:53.964Z,1015.97
2016-09-06T10:32:53.949Z,1015.98
2016-09-06T10:33:53.934Z,1015.95
2016-09-06T10:34:53.918Z,1015.95
2016-09-06T10:35:53.904Z,1015.98
2016-09-06T10:36:53.890Z,1015.95
2016-09-06T10:37:53.874Z,1015.88
2016-09-06T10:38:53.860Z,1015.85
2016-09-06T10:39:53.845Z,1015.86
2016-09-06T10:40:53.830Z,1015.86
2016-09-06T10:41:53.815Z,1015.85
2016-09-06T10:42:53.801Z,1015.87
2016-09-06T10:43:53.786Z,1015.89
2016-09-06T10:44:53.772Z,1015.85
2016-09-06T10:45:53.756Z,1015.83
2016-09-06T10:46:53.742Z,1015.84
2016-09-06T10:47:53.733Z,1015.87
2016-09-06T10:48:53.713Z,1015.83
2016-09-06T10:49:53.698Z,1015.85
2016-09-06T10:50:53.684Z,1015.87
2016-09-06T10:51:53.670Z,1015.8
2016-09-06T10:52:53.655Z,1015.86
2016-09-06T10:53:53.640Z,1015.84
2016-09-06T10:54:53.626Z,1015.77
2016-09-06T10:55:53.612Z,1015.8
2016-09-06T10:56:53.597Z,1015.78
2016-09-06T10:57:53.583Z,1015.79
2016-09-06T10:58:53.570Z,1015.77
2016-09-06T10:59:53.554Z,1015.75
2016-09-06T11:00:53.540Z,1015.75
2016-09-06T11:01:53.526Z,1015.73
2016-09-06T11:02:53.512Z,1015.74
2016-09-06T11:03:53.498Z,1015.73
2016-09-06T11:04:53.484Z,1015.74
2016-09-06T11:05:53.469Z,1015.73
2016-09-06T11:06:53.456Z,1015.71
2016-09-06T11:07:53.446Z,1015.67
2016-09-06T11:08:53.426Z,1015.62
2016-09-06T11:09:53.414Z,1015.61
2016-09-06T11:10:53.399Z,1015.64
2016-09-06T11:11:53.385Z,1015.64
2016-09-06T11:12:53.371Z,1015.61
2016-09-06T11:13:53.358Z,1015.61
2016-09-06T11:14:53.343Z,1015.63
2016-09-06T11:15:53.329Z,1015.62
2016-09-06T11:16:53.316Z,1015.63
2016-09-06T11:17:53.302Z,1015.58
2016-09-06T11:18:53.288Z,1015.58
2016-09-06T11:19:53.274Z,1015.61
2016-09-06T11:20:53.261Z,1015.61
2016-09-06T11:21:53.247Z,1015.66
2016-09-06T11:22:53.234Z,1015.61
2016-09-06T11:23:53.220Z,1015.62
2016-09-06T11:24:53.207Z,1015.65
2016-09-06T11:25:53.192Z,1015.65
2016-09-06T11:26:53.180Z,1015.65
2016-09-06T11:27:53.166Z,1015.63
2016-09-06T11:28:53.153Z,1015.66
2016-09-06T11:29:53.140Z,1015.64
2016-09-06T11:30:53.126Z,1015.65
2016-09-06T11:31:53.112Z,1015.6
2016-09-06T11:32:53.099Z,1015.59
2016-09-06T11:33:53.086Z,1015.62
2016-09-06T11:34:53.073Z,1015.59
2016-09-06T11:35:53.059Z,1015.6
2016-09-06T11:36:53.046Z,1015.65
2016-09-06T11:37:53.032Z,1015.65
2016-09-06T11:38:53.020Z,1015.64
2016-09-06T11:39:53.005Z,1015.62
2016-09-06T11:40:52.992Z,1015.61
2016-09-06T11:41:52.980Z,1015.65
2016-09-06T11:42:52.967Z,1015.59
2016-09-06T11:43:52.953Z,1015.54
2016-09-06T11:44:52.974Z,1015.57
2016-09-06T11:45:52.927Z,1015.57
2016-09-06T11:46:52.914Z,1015.56
2016-09-06T11:47:52.900Z,1015.58
2016-09-06T11:48:52.888Z,1015.5
2016-09-06T11:49:52.874Z,1015.52
2016-09-06T11:50:52.861Z,1015.48
2016-09-06T11:51:52.849Z,1015.46
2016-09-06T11:52:52.836Z,1015.5
2016-09-06T11:53:52.823Z,1015.47
2016-09-06T11:54:52.810Z,1015.41
2016-09-06T11:55:52.797Z,1015.46
2016-09-06T11:56:52.784Z,1015.46
2016-09-06T11:57:52.772Z,1015.42
2016-09-06T11:58:52.758Z,1015.45
2016-09-06T11:59:52.745Z,1015.46
2016-09-06T12:00:52.732Z,1015.48
2016-09-06T12:01:52.719Z,1015.45
2016-09-06T12:02:52.705Z,1015.46
2016-09-06T12:03:52.693Z,1015.43
2016-09-06T12:04:52.686Z,1015.42
2016-09-06T12:05:52.667Z,1015.42
2016-09-06T12:06:52.654Z,1015.37
2016-09-06T12:07:52.641Z,1015.39